02:01
Airports
History
Links
Donate
Help keep this website running!
PayPal
Bitcoin
This page is community maintained. The information is intended for PC simulator navigation or reference.
Always use approved charts for navigation.
LILO
Sondrio Caiolo
Sondrio Caiolo (LILO)
Colorina, Lombardia, Italy (23010)
(U)
Lat/Lng:46° 9' 0.01" N / 9° 43' 0" E
46.150002 / 9.716667
Elevation:901'ft / 275mMSL
ID / ICAO:LILO
Runways:1
Longest:09-27
Asphalt 805m / 2,640ft
Nearby Weather01:50 GMT 2017-09-20
Nearby weather at LIME, Bergamo Orio Al Serio located 33.1 nautical miles from LILO
Altimeter: 29.94
Visibility: 4.3 statute miles
Wind: 2 knots (from 010°)
Temp: 11°c / 52°f
Humidity: 93.5%

METAR: LIME 200150Z 01002KT 7000 SCT080 11/10 Q1014 NOSIG

(Powered by phpweather)
Nearby VORs <50NM
Nearby NDBs
Runway 09 / 27
Dimensions:804.7 x 22.9m 2640' x 75'ft
Surface:Asphalt
Runway 09 [A]Runway 27 [B]
Heading:090°TH 270°TH
Lat:
Lng:
46° 9' 0.01"N
9° 42' 41.3"E
46° 9' 0.01"N
9° 43' 18.7"E
User Notes and Comments
46° 9' 0.01" N / 9° 43' 0" E
Distance To
Airport ID:
Nearby Airports
(C) Samedan 27.7 NM
LSZS NNE 16°
4 Valbrembo 30.3 NM
LILV S 191°
(C) Bergamo Orio Al Serio 33.1 NM
LIME ( WX ) S 180°
(C) Lodrino 36.1 NM
LSML WNW 286°
(U) Alzate Brianza 37.5 NM
LILB SW 225°
(C) Lugano 39.9 NM
LSZA ( WX ) WSW 255°
(C) Locarno 40.1 NM
LSZL W 271°
VFR Chart
Flight Planning at SkyVector.com